Leasburg, North Carolina
Current Conditions -  °F | °C
As of 8:15 AM on Wednesday 22 Oct 2014 (Local Time) from KTDF Reporting Station
Scattered Clouds Scattered Clouds  
Wind Chill: 44°   Ceiling: Unl
Heat Index: 46°   Visibility: 10mi
Dew Point: 37°   Wind: 5mph
Humidity: 71%   Direction: 310°NW
Pressure: 30.01"   Gusts: NA
Location:  36.39°N, 79.15°W
Report Text: KTDF 221215Z AUTO 31004KT 10SM SCT047 08/03 A3001 RMK AO2
Loading
Personal Weather Stations






























Interactive Weather Map
Tropical Storm Tracking
New forecast layout! Learn more

10-Day Weather Forecast

Advertisements
Track Severe Weather on mobile